createdAt,value
2024-05-09T00:00:39.192Z,47.56
2024-05-09T00:03:42.917Z,47.42
2024-05-09T00:06:44.702Z,47.21
2024-05-09T00:09:48.061Z,47.56
2024-05-09T00:12:49.745Z,47.75
2024-05-09T00:15:51.469Z,47.64
2024-05-09T00:18:53.343Z,47.66
2024-05-09T00:21:55.150Z,47.65
2024-05-09T00:24:56.801Z,47.69
2024-05-09T00:27:58.485Z,47.54
2024-05-09T00:31:00.097Z,47.61
2024-05-09T00:34:01.996Z,47.78
2024-05-09T00:37:04.006Z,47.72
2024-05-09T00:40:09.570Z,47.50
2024-05-09T00:43:14.776Z,47.91
2024-05-09T00:46:17.595Z,47.57
2024-05-09T00:49:19.548Z,47.86
2024-05-09T00:52:21.796Z,47.83
2024-05-09T00:55:23.980Z,47.78
2024-05-09T00:58:28.428Z,47.84
2024-05-09T01:01:30.520Z,47.95
2024-05-09T01:04:32.252Z,48.14
2024-05-09T01:07:34.297Z,48.03
2024-05-09T01:10:37.079Z,48.28
2024-05-09T01:13:38.860Z,48.25
2024-05-09T01:16:40.581Z,48.20
2024-05-09T01:19:43.995Z,48.48
2024-05-09T01:22:47.059Z,48.13
2024-05-09T01:25:48.805Z,48.42
2024-05-09T01:28:50.589Z,48.47
2024-05-09T01:31:52.398Z,48.62
2024-05-09T01:34:54.226Z,48.46
2024-05-09T01:37:55.934Z,48.49
2024-05-09T01:40:58.062Z,48.76
2024-05-09T01:43:59.763Z,48.65
2024-05-09T01:47:01.555Z,48.79
2024-05-09T01:50:06.600Z,48.40
2024-05-09T01:53:13.070Z,49.19
2024-05-09T01:56:15.304Z,48.93
2024-05-09T01:59:17.098Z,49.11
2024-05-09T02:02:19.006Z,49.18
2024-05-09T02:05:20.972Z,49.17
2024-05-09T02:08:22.879Z,49.30
2024-05-09T02:11:24.809Z,48.75
2024-05-09T02:14:26.702Z,49.16
2024-05-09T02:17:28.732Z,49.23
2024-05-09T02:20:36.138Z,49.23
2024-05-09T02:23:38.874Z,48.90
2024-05-09T02:26:40.691Z,49.21
2024-05-09T02:29:45.063Z,49.34
2024-05-09T02:32:46.942Z,49.46
2024-05-09T02:35:48.742Z,49.41
2024-05-09T02:38:50.403Z,49.55
2024-05-09T02:41:52.071Z,49.43
2024-05-09T02:44:53.815Z,49.57
2024-05-09T02:47:55.916Z,49.31
2024-05-09T02:50:57.766Z,49.66
2024-05-09T02:53:59.495Z,50.08
2024-05-09T02:57:01.135Z,49.75
2024-05-09T03:00:03.669Z,50.10
2024-05-09T03:03:09.457Z,49.80
2024-05-09T03:06:12.731Z,50.06
2024-05-09T03:09:14.513Z,49.74
2024-05-09T03:12:16.311Z,50.11
2024-05-09T03:15:18.420Z,49.95
2024-05-09T03:18:20.203Z,50.29
2024-05-09T03:21:22.091Z,50.06
2024-05-09T03:24:23.928Z,50.29
2024-05-09T03:27:25.925Z,50.07
2024-05-09T03:30:38.808Z,50.37
2024-05-09T03:33:44.015Z,49.74
2024-05-09T03:36:45.897Z,48.92
2024-05-09T03:39:47.556Z,48.40
2024-05-09T03:42:49.246Z,47.69
2024-05-09T03:45:50.926Z,47.25
2024-05-09T03:48:52.771Z,46.84
2024-05-09T03:51:54.429Z,46.59
2024-05-09T03:54:56.118Z,46.15
2024-05-09T03:57:57.807Z,46.16
2024-05-09T04:00:59.698Z,45.82
2024-05-09T04:04:01.447Z,45.62
2024-05-09T04:07:03.266Z,45.48
2024-05-09T04:10:08.925Z,45.36
2024-05-09T04:13:11.036Z,45.14
2024-05-09T04:16:12.770Z,45.18
2024-05-09T04:19:14.648Z,45.01
2024-05-09T04:22:17.221Z,44.77
2024-05-09T04:25:18.957Z,45.09
2024-05-09T04:28:20.738Z,44.88
2024-05-09T04:31:22.441Z,44.99
2024-05-09T04:34:24.322Z,45.03
2024-05-09T04:37:26.587Z,44.73
2024-05-09T04:40:33.523Z,44.92
2024-05-09T04:43:37.777Z,44.68
2024-05-09T04:46:42.406Z,44.96
2024-05-09T04:49:46.557Z,44.48
2024-05-09T04:52:49.655Z,44.68
2024-05-09T04:55:51.509Z,43.70
2024-05-09T04:58:53.343Z,40.48
2024-05-09T05:01:56.683Z,40.11
2024-05-09T05:04:58.584Z,41.19
2024-05-09T05:08:00.787Z,42.51
2024-05-09T05:11:03.442Z,43.20
2024-05-09T05:14:05.296Z,44.50
2024-05-09T05:17:07.738Z,44.26
2024-05-09T05:20:15.046Z,44.19
2024-05-09T05:23:20.900Z,44.20
2024-05-09T05:26:22.776Z,44.12
2024-05-09T05:29:24.487Z,44.13
2024-05-09T05:32:26.410Z,44.07
2024-05-09T05:35:28.434Z,43.97
2024-05-09T05:38:30.371Z,43.94
2024-05-09T05:41:32.157Z,43.59
2024-05-09T05:44:34.092Z,43.62
2024-05-09T05:47:37.716Z,43.50
2024-05-09T05:50:39.624Z,43.57
2024-05-09T05:53:41.464Z,43.26
2024-05-09T05:56:43.213Z,43.24
2024-05-09T05:59:44.949Z,43.66
2024-05-09T06:02:46.854Z,43.46
2024-05-09T06:05:48.791Z,43.50
2024-05-09T06:08:50.734Z,43.42
2024-05-09T06:11:52.739Z,43.70
2024-05-09T06:14:54.502Z,43.60
2024-05-09T06:17:56.327Z,43.63
2024-05-09T06:20:58.159Z,43.59
2024-05-09T06:27:01.873Z,43.67
2024-05-09T06:30:03.920Z,43.90
2024-05-09T06:33:06.509Z,43.58
2024-05-09T06:36:08.348Z,43.66
2024-05-09T06:39:10.210Z,43.57
2024-05-09T06:42:11.847Z,43.60
2024-05-09T06:45:15.653Z,43.37
2024-05-09T06:48:19.171Z,43.49
2024-05-09T06:51:21.418Z,43.53
2024-05-09T06:54:23.136Z,43.70
2024-05-09T06:57:24.804Z,43.76
2024-05-09T07:00:34.793Z,43.54
2024-05-09T07:03:41.624Z,43.79
2024-05-09T07:06:43.397Z,43.53
2024-05-09T07:09:45.086Z,43.61
2024-05-09T07:12:46.962Z,43.66
2024-05-09T07:15:48.662Z,43.89
2024-05-09T07:18:54.938Z,43.83
2024-05-09T07:21:58.032Z,43.68
2024-05-09T07:24:59.744Z,43.68
2024-05-09T07:28:01.494Z,43.83
2024-05-09T07:31:03.187Z,43.52
2024-05-09T07:34:05.005Z,44.05
2024-05-09T07:37:12.514Z,43.68
2024-05-09T07:40:24.122Z,43.97
2024-05-09T07:43:30.361Z,43.70
2024-05-09T07:53:34.241Z,43.73
2024-05-09T07:56:03.382Z,43.11
2024-05-09T07:59:05.252Z,43.29
2024-05-09T08:02:07.126Z,43.16
2024-05-09T08:05:09.060Z,43.08
2024-05-09T08:08:11.376Z,40.65
2024-05-09T08:11:13.329Z,40.88
2024-05-09T08:14:15.103Z,40.15
2024-05-09T08:17:16.851Z,40.47
2024-05-09T08:20:26.860Z,42.07
2024-05-09T08:23:32.851Z,42.40
2024-05-09T08:26:34.476Z,42.34
2024-05-09T08:29:37.084Z,42.41
2024-05-09T08:32:40.463Z,42.54
2024-05-09T08:35:42.246Z,42.27
2024-05-09T08:38:44.037Z,42.39
2024-05-09T08:41:49.543Z,42.16
2024-05-09T08:44:52.232Z,42.18
2024-05-09T08:47:55.143Z,42.32
2024-05-09T08:50:59.392Z,42.31
2024-05-09T08:54:01.217Z,42.13
2024-05-09T08:57:04.609Z,42.12
2024-05-09T09:00:12.514Z,42.50
2024-05-09T09:03:24.860Z,42.20
2024-05-09T09:06:27.408Z,42.33
2024-05-09T09:09:29.786Z,42.54
2024-05-09T09:12:32.260Z,42.64
2024-05-09T09:15:34.165Z,42.41
2024-05-09T09:18:36.221Z,42.52
2024-05-09T09:21:37.959Z,42.38
2024-05-09T09:24:40.131Z,42.57
2024-05-09T09:27:41.880Z,42.65
2024-05-09T09:30:44.399Z,42.63
2024-05-09T09:33:46.592Z,42.39
2024-05-09T09:36:49.632Z,42.69
2024-05-09T09:39:51.809Z,42.64
2024-05-09T09:42:57.769Z,42.75
2024-05-09T09:46:00.761Z,42.85
2024-05-09T09:49:02.905Z,43.11
2024-05-09T09:52:07.612Z,42.88
2024-05-09T09:55:11.456Z,42.85
2024-05-09T09:58:15.939Z,42.98
2024-05-09T10:01:17.786Z,43.08
2024-05-09T10:04:19.828Z,43.01
2024-05-09T10:07:22.739Z,43.41
2024-05-09T10:10:31.891Z,43.16
2024-05-09T10:13:35.365Z,43.26
2024-05-09T10:16:43.878Z,43.32
2024-05-09T10:19:47.010Z,43.50
2024-05-09T10:22:50.435Z,43.55
2024-05-09T10:26:03.508Z,43.58
2024-05-09T10:29:17.066Z,43.50
2024-05-09T10:32:19.109Z,43.71
2024-05-09T10:35:22.671Z,43.46
2024-05-09T10:38:24.887Z,43.75
2024-05-09T10:41:26.557Z,43.93
2024-05-09T10:44:28.306Z,44.08
2024-05-09T10:47:30.265Z,43.81
2024-05-09T10:50:34.368Z,44.00
2024-05-09T10:53:44.045Z,44.04
2024-05-09T10:56:46.138Z,44.05
2024-05-09T10:59:52.310Z,43.77
2024-05-09T11:02:55.652Z,44.04
2024-05-09T11:05:58.050Z,44.02
2024-05-09T11:08:59.969Z,43.98
2024-05-09T11:12:03.019Z,43.91
2024-05-09T11:15:05.767Z,43.88
2024-05-09T11:18:08.621Z,44.09
2024-05-09T11:21:13.982Z,43.78
2024-05-09T11:24:15.834Z,44.01
2024-05-09T11:27:23.426Z,43.81
2024-05-09T11:30:31.557Z,43.76
2024-05-09T11:33:40.224Z,43.85
2024-05-09T11:36:42.062Z,43.59
2024-05-09T11:39:44.189Z,43.54
2024-05-09T11:42:48.770Z,43.73
2024-05-09T11:45:52.729Z,43.70
2024-05-09T11:48:54.780Z,43.55
2024-05-09T11:51:56.772Z,43.64
2024-05-09T11:54:58.563Z,43.60
2024-05-09T11:58:00.432Z,43.62
2024-05-09T12:01:02.579Z,43.51
2024-05-09T12:04:04.927Z,43.75
2024-05-09T12:07:09.101Z,43.48
2024-05-09T12:10:16.807Z,43.40
2024-05-09T12:13:21.662Z,43.27
2024-05-09T12:16:23.690Z,43.25
2024-05-09T12:19:25.698Z,43.44
2024-05-09T12:22:27.490Z,43.17
2024-05-09T12:25:29.171Z,43.48
2024-05-09T12:28:30.955Z,43.29
2024-05-09T12:31:32.792Z,43.36
2024-05-09T12:34:34.809Z,43.32
2024-05-09T12:37:36.548Z,43.33
2024-05-09T12:40:39.384Z,43.27
2024-05-09T12:43:41.324Z,43.52
2024-05-09T12:46:43.247Z,43.36
2024-05-09T12:49:45.101Z,43.20
2024-05-09T12:52:46.908Z,43.31
2024-05-09T12:55:56.552Z,43.14
2024-05-09T12:59:01.894Z,43.08
2024-05-09T13:02:04.012Z,43.20
2024-05-09T13:05:06.141Z,43.26
2024-05-09T13:08:07.941Z,43.35
2024-05-09T13:11:09.851Z,43.31
2024-05-09T13:14:11.548Z,43.06
2024-05-09T13:17:13.379Z,42.82
2024-05-09T13:20:25.570Z,42.46
2024-05-09T13:23:31.166Z,41.92
2024-05-09T13:26:32.819Z,41.59
2024-05-09T13:29:34.507Z,41.81
2024-05-09T13:32:36.256Z,41.92
2024-05-09T13:35:38.037Z,41.51
2024-05-09T13:38:39.790Z,41.52
2024-05-09T13:41:41.484Z,41.47
2024-05-09T13:44:43.134Z,41.35
2024-05-09T13:47:45.047Z,41.29
2024-05-09T13:50:47.082Z,41.41
2024-05-09T13:53:48.903Z,41.49
2024-05-09T13:56:52.222Z,41.43
2024-05-09T13:59:54.042Z,41.60
2024-05-09T14:02:55.791Z,41.01
2024-05-09T14:05:57.783Z,41.05
2024-05-09T14:08:59.583Z,40.98
2024-05-09T14:12:01.324Z,40.91
2024-05-09T14:15:02.977Z,41.16
2024-05-09T14:18:05.560Z,41.13
2024-05-09T14:21:07.869Z,40.96
2024-05-09T14:24:09.582Z,40.56
2024-05-09T14:27:11.265Z,40.46
2024-05-09T14:30:22.078Z,40.84
2024-05-09T14:33:28.000Z,40.32
2024-05-09T14:36:29.963Z,40.73
2024-05-09T14:39:31.638Z,40.17
2024-05-09T14:42:33.490Z,40.41
2024-05-09T14:45:35.545Z,40.58
2024-05-09T14:48:38.102Z,40.67
2024-05-09T14:51:40.908Z,40.86
2024-05-09T14:54:42.608Z,40.61
2024-05-09T14:57:44.560Z,40.49
2024-05-09T15:00:50.213Z,40.67
2024-05-09T15:03:54.320Z,40.34
2024-05-09T15:06:56.682Z,40.48
2024-05-09T15:09:58.574Z,40.27
2024-05-09T15:13:00.523Z,40.06
2024-05-09T15:16:02.454Z,40.12
2024-05-09T15:19:04.398Z,40.00
2024-05-09T15:22:07.299Z,39.95
2024-05-09T15:25:09.138Z,39.75
2024-05-09T15:28:11.028Z,39.55
2024-05-09T15:31:12.826Z,39.30
2024-05-09T15:34:14.556Z,39.32
2024-05-09T15:37:16.565Z,39.28
2024-05-09T15:40:26.452Z,39.51
2024-05-09T15:43:37.225Z,39.44
2024-05-09T15:46:39.004Z,39.79
2024-05-09T15:49:41.672Z,39.47
2024-05-09T15:52:43.404Z,39.52
2024-05-09T15:55:45.158Z,40.04
2024-05-09T15:58:46.800Z,39.91
2024-05-09T16:01:48.655Z,39.68
2024-05-09T16:04:50.442Z,39.68
2024-05-09T16:07:52.471Z,39.76
2024-05-09T16:10:54.448Z,39.99
2024-05-09T16:13:56.359Z,39.81
2024-05-09T16:16:58.185Z,39.91
2024-05-09T16:20:00.179Z,39.79
2024-05-09T16:23:04.207Z,39.54
2024-05-09T16:26:06.639Z,39.69
2024-05-09T16:29:08.675Z,39.70
2024-05-09T16:32:10.431Z,39.57
2024-05-09T16:35:12.407Z,39.98
2024-05-09T16:38:14.166Z,40.04
2024-05-09T16:41:15.906Z,39.34
2024-05-09T16:44:18.012Z,39.54
2024-05-09T16:47:20.265Z,39.60
2024-05-09T16:50:28.855Z,39.52
2024-05-09T16:53:33.808Z,39.70
2024-05-09T16:56:37.930Z,39.34
2024-05-09T16:59:40.699Z,39.42
2024-05-09T17:02:44.263Z,39.32
2024-05-09T17:05:47.262Z,39.40
2024-05-09T17:08:49.599Z,39.53
2024-05-09T17:11:51.341Z,39.78
2024-05-09T17:14:53.082Z,39.71
2024-05-09T17:17:55.472Z,39.39
2024-05-09T17:20:57.272Z,39.70
2024-05-09T17:23:59.044Z,39.65
2024-05-09T17:27:01.247Z,39.61
2024-05-09T17:30:06.051Z,39.41
2024-05-09T17:33:09.698Z,39.53
2024-05-09T17:36:12.576Z,39.89
2024-05-09T17:39:14.359Z,39.80
2024-05-09T17:42:16.044Z,40.04
2024-05-09T17:45:17.770Z,40.06
2024-05-09T17:48:19.879Z,40.02
2024-05-09T17:51:21.669Z,40.22
2024-05-09T17:54:23.344Z,40.33
2024-05-09T17:57:26.243Z,40.23
2024-05-09T18:00:37.156Z,40.26
2024-05-09T18:03:43.716Z,40.66
2024-05-09T18:06:45.527Z,40.72
2024-05-09T18:09:47.241Z,40.78
2024-05-09T18:12:49.026Z,40.87
2024-05-09T18:15:50.859Z,40.73
2024-05-09T18:18:52.763Z,40.92
2024-05-09T18:21:54.639Z,41.07
2024-05-09T18:24:56.504Z,41.08
2024-05-09T18:27:58.327Z,41.30
2024-05-09T18:31:00.081Z,41.17
2024-05-09T18:34:02.047Z,41.15
2024-05-09T18:37:04.709Z,41.06
2024-05-09T18:40:11.755Z,41.17
2024-05-09T18:43:13.662Z,41.73
2024-05-09T18:46:15.508Z,41.61
2024-05-09T18:49:17.520Z,41.72
2024-05-09T18:52:19.512Z,41.39
2024-05-09T18:55:21.225Z,41.61
2024-05-09T18:58:23.410Z,41.99
2024-05-09T19:01:25.334Z,42.31
2024-05-09T19:04:27.219Z,42.23
2024-05-09T19:07:28.951Z,42.29
2024-05-09T19:10:34.536Z,42.24
2024-05-09T19:13:37.490Z,42.09
2024-05-09T19:16:39.273Z,41.90
2024-05-09T19:19:41.025Z,42.20
2024-05-09T19:22:42.718Z,42.02
2024-05-09T19:25:44.514Z,41.82
2024-05-09T19:28:46.320Z,41.88
2024-05-09T19:31:48.059Z,42.19
2024-05-09T19:34:49.772Z,42.69
2024-05-09T19:37:52.600Z,43.70
2024-05-09T19:40:54.512Z,44.10
2024-05-09T19:43:56.396Z,44.57
2024-05-09T19:46:58.165Z,44.95
2024-05-09T19:49:59.946Z,45.40
2024-05-09T19:53:01.746Z,45.57
2024-05-09T19:56:03.523Z,45.54
2024-05-09T19:59:05.218Z,45.46
2024-05-09T20:02:07.183Z,45.58
2024-05-09T20:05:09.294Z,45.91
2024-05-09T20:08:11.503Z,45.77
2024-05-09T20:11:14.988Z,45.90
2024-05-09T20:14:16.798Z,46.16
2024-05-09T20:17:18.529Z,46.12
2024-05-09T20:20:28.202Z,46.15
2024-05-09T20:23:37.842Z,45.90
2024-05-09T20:26:39.703Z,45.88
2024-05-09T20:29:41.375Z,46.07
2024-05-09T20:32:43.299Z,46.44
2024-05-09T20:35:45.270Z,46.27
2024-05-09T20:38:46.965Z,46.17
2024-05-09T20:41:48.689Z,46.39
2024-05-09T20:44:51.136Z,46.54
2024-05-09T20:47:53.177Z,46.44
2024-05-09T20:50:55.090Z,46.84
2024-05-09T20:53:56.843Z,46.63
2024-05-09T20:56:58.708Z,46.44
2024-05-09T21:00:00.516Z,46.49
2024-05-09T21:03:02.341Z,47.03
2024-05-09T21:06:04.357Z,47.03
2024-05-09T21:09:06.076Z,46.87
2024-05-09T21:12:07.882Z,48.37
2024-05-09T21:15:09.580Z,48.38
2024-05-09T21:18:11.494Z,48.38
2024-05-09T21:21:13.188Z,47.93
2024-05-09T21:24:14.925Z,48.28
2024-05-09T21:27:16.837Z,49.23
2024-05-09T21:30:27.893Z,48.72
2024-05-09T21:33:39.274Z,48.53
2024-05-09T21:36:41.137Z,48.71
2024-05-09T21:39:43.079Z,48.62
2024-05-09T21:42:45.590Z,49.01
2024-05-09T21:45:47.369Z,48.60
2024-05-09T21:48:49.290Z,48.63
2024-05-09T21:51:51.061Z,48.45
2024-05-09T21:54:53.047Z,48.42
2024-05-09T21:57:56.455Z,48.38
2024-05-09T22:00:58.385Z,48.26
2024-05-09T22:04:00.302Z,48.19
2024-05-09T22:07:04.607Z,47.92
2024-05-09T22:10:12.860Z,48.15
2024-05-09T22:13:21.625Z,48.08
2024-05-09T22:16:24.489Z,48.20
2024-05-09T22:19:26.324Z,48.06
2024-05-09T22:22:28.090Z,48.28
2024-05-09T22:25:30.887Z,47.95
2024-05-09T22:28:33.786Z,48.57
2024-05-09T22:31:35.610Z,48.25
2024-05-09T22:34:37.372Z,48.28
2024-05-09T22:37:39.130Z,47.95
2024-05-09T22:40:47.413Z,48.22
2024-05-09T22:43:51.385Z,48.13
2024-05-09T22:46:53.055Z,48.07
2024-05-09T22:49:54.750Z,48.07
2024-05-09T22:52:56.386Z,48.26
2024-05-09T22:55:58.045Z,48.37
2024-05-09T22:59:00.622Z,48.26
2024-05-09T23:02:03.129Z,48.42
2024-05-09T23:05:05.313Z,48.65
2024-05-09T23:08:08.571Z,48.39
2024-05-09T23:11:10.414Z,48.73
2024-05-09T23:14:12.114Z,48.61
2024-05-09T23:17:13.826Z,48.41
2024-05-09T23:20:21.686Z,48.66
2024-05-09T23:23:30.629Z,48.87
2024-05-09T23:26:32.379Z,48.88
2024-05-09T23:29:34.153Z,48.42
2024-05-09T23:32:35.977Z,48.43
2024-05-09T23:35:38.427Z,48.62
2024-05-09T23:38:41.140Z,48.85
2024-05-09T23:41:42.788Z,48.67
2024-05-09T23:44:44.512Z,48.69
2024-05-09T23:47:46.864Z,48.98
2024-05-09T23:50:48.588Z,48.49
2024-05-09T23:53:50.202Z,48.80
2024-05-09T23:56:51.916Z,48.93
2024-05-09T23:59:53.891Z,48.66
